createdAt,value
2022-12-29T00:00:01.578Z,98209.28
2022-12-29T00:05:07.341Z,98209.00
2022-12-29T00:10:12.915Z,98201.25
2022-12-29T00:15:35.915Z,98192.00
2022-12-29T00:20:58.837Z,98184.66
2022-12-29T00:26:29.727Z,98180.47
2022-12-29T00:31:51.635Z,98185.22
2022-12-29T00:36:56.341Z,98163.31
2022-12-29T00:42:37.035Z,98172.31
2022-12-29T00:47:41.821Z,98172.94
2022-12-29T00:52:46.234Z,98162.22
2022-12-29T00:57:51.996Z,98155.00
2022-12-29T01:02:56.578Z,98158.00
2022-12-29T01:08:00.919Z,98150.94
2022-12-29T01:13:06.847Z,98143.88
2022-12-29T01:18:11.473Z,98137.63
2022-12-29T01:23:16.261Z,98136.53
2022-12-29T01:28:26.323Z,98135.47
2022-12-29T01:33:30.929Z,98125.69
2022-12-29T01:38:37.121Z,98139.81
2022-12-29T01:43:46.801Z,98138.47
2022-12-29T01:48:54.866Z,98132.75
2022-12-29T01:54:03.396Z,98128.44
2022-12-29T01:59:16.544Z,98130.19
2022-12-29T02:04:21.639Z,98121.63
2022-12-29T02:09:27.110Z,98105.72
2022-12-29T02:14:33.258Z,98117.53
2022-12-29T02:20:39.305Z,98112.25
2022-12-29T02:26:25.997Z,98123.22
2022-12-29T02:31:40.795Z,98113.44
2022-12-29T02:36:57.977Z,98104.47
2022-12-29T02:42:11.772Z,98078.66
2022-12-29T02:47:26.073Z,98077.81
2022-12-29T02:52:36.133Z,98060.56
2022-12-29T02:57:40.835Z,98065.31
2022-12-29T03:03:07.780Z,98064.63
2022-12-29T03:08:27.213Z,98044.66
2022-12-29T03:13:59.127Z,98043.25
2022-12-29T03:19:10.721Z,98047.34
2022-12-29T03:24:16.756Z,98051.69
2022-12-29T03:29:26.357Z,98055.78
2022-12-29T03:34:50.614Z,98060.38
2022-12-29T03:39:58.180Z,98062.81
2022-12-29T03:45:02.756Z,98064.41
2022-12-29T03:50:10.762Z,98048.91
2022-12-29T03:55:18.425Z,98054.09
2022-12-29T04:00:23.598Z,98056.56
2022-12-29T04:05:29.818Z,98044.56
2022-12-29T04:10:40.432Z,98045.69
2022-12-29T04:15:46.278Z,98018.78
2022-12-29T04:21:08.033Z,98008.72
2022-12-29T04:26:31.182Z,97998.69
2022-12-29T04:31:52.620Z,98014.47
2022-12-29T04:37:01.713Z,98009.56
2022-12-29T04:42:10.572Z,98003.50
2022-12-29T04:47:17.783Z,97991.69
2022-12-29T04:52:32.192Z,98000.28
2022-12-29T04:57:36.933Z,98005.97
2022-12-29T05:02:41.936Z,98014.28
2022-12-29T05:07:51.196Z,98009.00
2022-12-29T05:12:56.409Z,97996.13
2022-12-29T05:18:01.404Z,97988.91
2022-12-29T05:23:13.237Z,97982.25
2022-12-29T05:28:27.341Z,97990.69
2022-12-29T05:33:53.865Z,97961.88
2022-12-29T05:39:00.545Z,97962.94
2022-12-29T05:44:15.163Z,97967.81
2022-12-29T05:49:26.889Z,97965.78
2022-12-29T05:54:51.832Z,97981.38
2022-12-29T05:59:59.571Z,97990.34
2022-12-29T06:05:08.144Z,97991.53
2022-12-29T06:10:19.331Z,97990.19
2022-12-29T06:15:44.037Z,97983.63
2022-12-29T06:20:49.755Z,97975.03
2022-12-29T06:25:58.403Z,97977.44
2022-12-29T06:31:06.233Z,97962.19
2022-12-29T06:36:10.895Z,97960.50
2022-12-29T06:41:16.877Z,97953.94
2022-12-29T06:46:58.528Z,97952.84
2022-12-29T06:52:12.542Z,97949.81
2022-12-29T06:57:19.310Z,97946.00
2022-12-29T07:02:26.359Z,97945.56
2022-12-29T07:07:36.873Z,97946.22
2022-12-29T07:12:46.074Z,97958.34
2022-12-29T07:17:54.168Z,97963.13
2022-12-29T07:22:58.807Z,97962.31
2022-12-29T07:28:05.241Z,97969.41
2022-12-29T07:33:12.831Z,97978.09
2022-12-29T07:38:22.923Z,97987.50
2022-12-29T07:43:30.153Z,97986.53
2022-12-29T07:49:01.647Z,97967.84
2022-12-29T07:54:13.099Z,97944.66
2022-12-29T07:59:19.526Z,97954.78
2022-12-29T08:04:24.245Z,97937.28
2022-12-29T08:09:28.759Z,97941.44
2022-12-29T08:14:34.463Z,97953.31
2022-12-29T08:19:39.672Z,97952.97
2022-12-29T08:24:43.732Z,97955.63
2022-12-29T08:29:49.841Z,97957.81
2022-12-29T08:34:54.038Z,97947.06
2022-12-29T08:39:58.854Z,97960.88
2022-12-29T08:45:05.837Z,97970.84
2022-12-29T08:50:10.299Z,97965.09
2022-12-29T08:55:14.681Z,97981.31
2022-12-29T09:00:23.772Z,97972.44
2022-12-29T09:05:29.173Z,97966.78
2022-12-29T09:10:33.826Z,97963.38
2022-12-29T09:15:40.579Z,97966.97
2022-12-29T09:20:45.452Z,97958.25
2022-12-29T09:25:55.867Z,97967.84
2022-12-29T09:31:02.402Z,97951.50
2022-12-29T09:36:07.331Z,97955.94
2022-12-29T09:41:20.662Z,97954.13
2022-12-29T09:46:30.593Z,97956.88
2022-12-29T09:51:38.522Z,97959.81
2022-12-29T09:56:43.091Z,97953.53
2022-12-29T10:01:54.205Z,97956.75
2022-12-29T10:12:48.850Z,97948.91
2022-12-29T10:18:03.102Z,97934.66
2022-12-29T10:23:27.005Z,97927.88
2022-12-29T10:28:41.057Z,97925.78
2022-12-29T10:33:47.064Z,97919.44
2022-12-29T10:39:04.352Z,97911.69
2022-12-29T10:44:15.760Z,97916.88
2022-12-29T10:49:22.730Z,97918.13
2022-12-29T10:54:34.676Z,97916.22
2022-12-29T10:59:39.624Z,97924.66
2022-12-29T11:04:57.400Z,97904.53
2022-12-29T11:10:21.652Z,97900.63
2022-12-29T11:15:26.300Z,97905.13
2022-12-29T11:20:38.643Z,97912.94
2022-12-29T11:25:43.577Z,97897.00
2022-12-29T11:31:00.958Z,97905.13
2022-12-29T11:36:10.331Z,97897.84
2022-12-29T11:41:22.074Z,97887.97
2022-12-29T11:46:30.423Z,97893.50
2022-12-29T11:51:45.238Z,97897.34
2022-12-29T11:56:50.778Z,97885.84
2022-12-29T12:01:56.034Z,97888.25
2022-12-29T12:07:14.615Z,97877.50
2022-12-29T12:12:30.162Z,97877.69
2022-12-29T12:17:46.701Z,97883.66
2022-12-29T12:23:04.156Z,97885.81
2022-12-29T12:28:19.782Z,97883.06
2022-12-29T12:33:31.027Z,97886.78
2022-12-29T12:38:47.576Z,97873.00
2022-12-29T12:43:57.930Z,97881.00
2022-12-29T12:49:37.189Z,97879.00
2022-12-29T12:55:03.083Z,97876.25
2022-12-29T13:00:13.322Z,97882.81
2022-12-29T13:05:37.683Z,97887.16
2022-12-29T13:10:53.562Z,97889.59
2022-12-29T13:16:13.813Z,97889.28
2022-12-29T13:21:39.292Z,97870.47
2022-12-29T13:26:50.530Z,97876.97
2022-12-29T13:32:24.159Z,97891.22
2022-12-29T13:37:33.591Z,97875.00
2022-12-29T13:42:39.559Z,97888.78
2022-12-29T13:47:49.936Z,97884.25
2022-12-29T13:53:08.877Z,97880.19
2022-12-29T13:58:27.771Z,97892.50
2022-12-29T14:03:51.696Z,97879.53
2022-12-29T14:08:59.314Z,97881.50
2022-12-29T14:14:16.301Z,97880.50
2022-12-29T14:19:26.531Z,97876.91
2022-12-29T14:24:46.657Z,97880.81
2022-12-29T14:29:53.605Z,97889.88
2022-12-29T14:35:00.104Z,97898.81
2022-12-29T14:40:08.365Z,97887.94
2022-12-29T14:45:30.890Z,97893.44
2022-12-29T14:50:44.385Z,97886.19
2022-12-29T14:55:56.260Z,97892.66
2022-12-29T15:01:02.721Z,97892.69
2022-12-29T15:06:13.228Z,97902.09
2022-12-29T15:11:24.189Z,97895.59
2022-12-29T15:16:37.223Z,97889.28
2022-12-29T15:21:44.791Z,97903.72
2022-12-29T15:26:54.876Z,97902.25
2022-12-29T15:32:03.369Z,97896.91
2022-12-29T15:37:09.454Z,97892.22
2022-12-29T15:42:54.400Z,97893.66
2022-12-29T15:48:01.662Z,97899.34
2022-12-29T15:53:14.029Z,97893.31
2022-12-29T15:58:24.848Z,97904.84
2022-12-29T16:03:35.120Z,97895.13
2022-12-29T16:08:41.951Z,97905.19
2022-12-29T16:13:46.637Z,97893.31
2022-12-29T16:18:58.090Z,97885.06
2022-12-29T16:24:07.496Z,97889.75
2022-12-29T16:29:15.743Z,97903.22
2022-12-29T16:34:28.004Z,97900.13
2022-12-29T16:39:37.244Z,97891.22
2022-12-29T16:44:41.467Z,97898.66
2022-12-29T16:49:55.284Z,97904.19
2022-12-29T16:55:03.171Z,97916.03
2022-12-29T17:00:19.921Z,97909.56
2022-12-29T17:05:26.891Z,97912.63
2022-12-29T17:10:51.578Z,97919.94
2022-12-29T17:15:55.890Z,97926.75
2022-12-29T17:21:01.902Z,97929.16
2022-12-29T17:26:14.985Z,97931.13
2022-12-29T17:31:19.592Z,97930.31
2022-12-29T17:36:26.390Z,97931.63
2022-12-29T17:41:31.342Z,97934.56
2022-12-29T17:46:36.545Z,97933.56
2022-12-29T17:51:43.768Z,97946.38
2022-12-29T17:56:48.169Z,97950.59
2022-12-29T18:01:52.724Z,97932.75
2022-12-29T18:06:58.347Z,97938.59
2022-12-29T18:12:02.826Z,97945.03
2022-12-29T18:17:13.904Z,97948.28
2022-12-29T18:22:19.529Z,97952.03
2022-12-29T18:27:23.721Z,97950.88
2022-12-29T18:32:28.349Z,97944.69
2022-12-29T18:37:34.223Z,97942.56
2022-12-29T18:42:38.765Z,97945.66
2022-12-29T18:47:43.223Z,97936.72
2022-12-29T18:52:48.955Z,97940.44
2022-12-29T18:57:53.661Z,97944.97
2022-12-29T19:02:57.901Z,97940.94
2022-12-29T19:08:03.721Z,97934.25
2022-12-29T19:13:08.536Z,97941.69
2022-12-29T19:23:45.418Z,97936.00
2022-12-29T19:28:49.939Z,97939.41
2022-12-29T19:33:54.578Z,97944.06
2022-12-29T19:39:00.518Z,97945.38
2022-12-29T19:44:05.379Z,97936.13
2022-12-29T19:49:09.581Z,97947.63
2022-12-29T19:54:15.395Z,97945.69
2022-12-29T19:59:19.868Z,97941.63
2022-12-29T20:04:24.449Z,97957.31
2022-12-29T20:09:30.237Z,97950.53
2022-12-29T20:14:34.751Z,97945.16
2022-12-29T20:19:40.696Z,97949.63
2022-12-29T20:24:50.123Z,97944.25
2022-12-29T20:29:55.092Z,97940.78
2022-12-29T20:34:59.542Z,97938.53
2022-12-29T20:40:06.354Z,97934.00
2022-12-29T20:45:11.668Z,97940.78
2022-12-29T20:50:16.347Z,97940.63
2022-12-29T20:55:22.484Z,97935.94
2022-12-29T21:00:30.784Z,97942.97
2022-12-29T21:05:39.021Z,97936.13
2022-12-29T21:10:48.279Z,97942.69
2022-12-29T21:15:58.141Z,97943.00
2022-12-29T21:21:05.411Z,97945.84
2022-12-29T21:26:12.514Z,97941.91
2022-12-29T21:31:27.056Z,97949.41
2022-12-29T21:36:32.930Z,97967.53
2022-12-29T21:41:38.759Z,97976.84
2022-12-29T21:46:44.203Z,97971.97
2022-12-29T21:51:51.012Z,97986.47
2022-12-29T21:56:56.844Z,97986.59
2022-12-29T22:02:18.637Z,97990.06
2022-12-29T22:07:40.345Z,97997.00
2022-12-29T22:13:01.290Z,97996.22
2022-12-29T22:18:06.462Z,97993.94
2022-12-29T22:23:10.687Z,97995.00
2022-12-29T22:28:16.884Z,97986.28
2022-12-29T22:33:21.692Z,97988.38
2022-12-29T22:38:25.964Z,97994.34
2022-12-29T22:43:32.098Z,97988.66
2022-12-29T22:48:40.288Z,97982.44
2022-12-29T22:53:50.393Z,97989.75
2022-12-29T22:58:56.073Z,97989.53
2022-12-29T23:04:25.942Z,97982.59
2022-12-29T23:09:24.936Z,97981.25
2022-12-29T23:14:30.542Z,97974.75
2022-12-29T23:19:34.853Z,97977.50
2022-12-29T23:24:39.320Z,97983.75
2022-12-29T23:29:45.108Z,97980.09
2022-12-29T23:34:49.833Z,97996.59
2022-12-29T23:39:54.028Z,97980.25
2022-12-29T23:44:59.948Z,97978.88
2022-12-29T23:50:14.701Z,97975.69
2022-12-29T23:55:19.900Z,97972.31
